Time;durP1;ratioP1;P1;durP2;ratioP2;P2;SDS_P1;SDS_P2;PMS_P1;PMS_P2;Temp;Humidity;BMP_temperature;BMP_pressure;BME280_temperature;BME280_humidity;BME280_pressure;Samples;Min_cycle;Max_cycle;Signal;HPM_P1;HPM_P2
2022/06/30 00:02:05;;;;;;;;;;;;;;;23.49;59.07;100871.03;1739139;81;26520;-53
2022/06/30 00:04:31;;;;;;;;;;;;;;;23.51;59.32;100873.58;1735767;81;27244;-55
2022/06/30 00:06:58;;;;;;;;;;;;;;;23.51;60.27;100866.17;1722416;81;27587;-56
2022/06/30 00:09:25;;;;;;;;;;;;;;;23.48;59.90;100870.74;1720456;81;25799;-55
2022/06/30 00:11:51;;;;;;;;;;;;;;;23.49;59.69;100869.66;1726609;82;25812;-55
2022/06/30 00:14:17;;;;;;;;;;;;;;;23.49;60.01;100871.58;1715801;81;25625;-54
2022/06/30 00:16:44;;;;;;;;;;;;;;;23.50;60.22;100869.14;1721565;81;25797;-55
2022/06/30 00:19:12;;;;;;;;;;;;;;;23.50;60.17;100865.02;1733765;81;29595;-57
2022/06/30 00:21:38;;;;;;;;;;;;;;;23.49;60.00;100860.59;1717197;82;25726;-55
2022/06/30 00:24:05;;;;;;;;;;;;;;;23.47;60.20;100864.08;1738621;81;26419;-55
2022/06/30 00:26:32;;;;;;;;;;;;;;;23.47;60.05;100862.70;1727247;81;26622;-54
2022/06/30 00:28:59;;;;;;;;;;;;;;;23.49;59.98;100864.70;1727599;81;25714;-55
2022/06/30 00:31:25;;;;;;;;;;;;;;;23.44;60.01;100860.70;1729622;81;27497;-55
2022/06/30 00:33:52;;;;;;;;;;;;;;;23.46;60.17;100874.23;1734218;81;25836;-56
2022/06/30 00:36:18;;;;;;;;;;;;;;;23.48;60.46;100866.63;1742443;80;26293;-54
2022/06/30 00:38:45;;;;;;;;;;;;;;;23.48;60.61;100876.23;1728697;81;26010;-56
2022/06/30 00:41:11;;;;;;;;;;;;;;;23.49;60.79;100869.66;1732873;81;25714;-56
2022/06/30 00:43:46;;;;;;;;;;;;;;;23.51;60.66;100879.06;1720132;80;27506;-55
2022/06/30 00:46:14;;;;;;;;;;;;;;;23.51;60.88;100876.32;1723390;80;25644;-55
2022/06/30 00:48:43;;;;;;;;;;;;;;;23.49;60.73;100886.12;1701659;82;25892;-55
2022/06/30 00:51:10;;;;;;;;;;;;;;;23.50;60.62;100878.75;1726504;81;25846;-55
2022/06/30 00:53:40;;;;;;;;;;;;;;;23.47;61.09;100875.06;1716244;82;25761;-55
2022/06/30 00:56:09;;;;;;;;;;;;;;;23.45;60.77;100871.17;1723855;81;27669;-55
2022/06/30 00:58:39;;;;;;;;;;;;;;;23.42;60.39;100881.20;1721827;82;25803;-55
2022/06/30 01:01:08;;;;;;;;;;;;;;;23.40;60.55;100871.83;1732546;81;25554;-54
2022/06/30 01:03:35;;;;;;;;;;;;;;;23.34;60.83;100871.34;1735913;81;26675;-55
2022/06/30 01:06:04;;;;;;;;;;;;;;;23.24;62.40;100869.05;1730714;81;25720;-55
2022/06/30 01:08:31;;;;;;;;;;;;;;;23.11;62.24;100864.44;1726618;81;27489;-55
2022/06/30 01:13:48;;;;;;;;;;;;;;;22.97;61.76;100869.12;1724521;81;25735;-56
2022/06/30 01:16:14;;;;;;;;;;;;;;;22.98;61.85;100865.88;1712249;82;26015;-55
2022/06/30 01:18:41;;;;;;;;;;;;;;;22.94;61.88;100862.72;1711249;82;25529;-54
2022/06/30 01:21:07;;;;;;;;;;;;;;;22.88;61.77;100853.14;1716285;81;27512;-56
2022/06/30 01:23:34;;;;;;;;;;;;;;;22.85;61.88;100852.19;1730078;80;25715;-55
2022/06/30 01:26:01;;;;;;;;;;;;;;;22.83;61.92;100858.73;1725451;81;25768;-54
2022/06/30 01:28:27;;;;;;;;;;;;;;;22.81;61.85;100866.35;1726839;81;27872;-55
2022/06/30 01:30:55;;;;;;;;;;;;;;;22.78;61.81;100861.80;1727452;81;27232;-55
2022/06/30 01:33:21;;;;;;;;;;;;;;;22.74;62.33;100861.93;1729213;81;27433;-54
2022/06/30 01:35:48;;;;;;;;;;;;;;;22.72;62.40;100858.05;1734936;80;25804;-55
2022/06/30 01:38:14;;;;;;;;;;;;;;;22.71;62.30;100860.47;1735939;81;25925;-52
2022/06/30 01:40:41;;;;;;;;;;;;;;;22.68;62.38;100858.14;1730810;80;25793;-54
2022/06/30 01:43:11;;;;;;;;;;;;;;;22.63;62.86;100854.67;1724451;81;25838;-55
2022/06/30 01:45:37;;;;;;;;;;;;;;;22.59;62.50;100860.80;1744189;80;28422;-55
2022/06/30 01:48:05;;;;;;;;;;;;;;;22.56;62.95;100869.44;1743574;80;25806;-55
2022/06/30 01:50:32;;;;;;;;;;;;;;;22.48;62.93;100865.88;1743275;81;25684;-55
2022/06/30 01:52:59;;;;;;;;;;;;;;;22.41;63.70;100864.22;1729033;81;26811;-52
2022/06/30 01:55:27;;;;;;;;;;;;;;;22.36;63.10;100864.82;1721246;82;25851;-55
2022/06/30 01:57:55;;;;;;;;;;;;;;;22.37;63.44;100861.00;1722764;82;28275;-55
2022/06/30 02:00:24;;;;;;;;;;;;;;;22.38;63.26;100859.12;1731873;80;25465;-55
2022/06/30 02:02:51;;;;;;;;;;;;;;;22.38;63.27;100859.12;1729725;81;25822;-55
2022/06/30 02:05:18;;;;;;;;;;;;;;;22.35;63.55;100853.54;1715377;82;25858;-54
2022/06/30 02:07:45;;;;;;;;;;;;;;;22.33;63.36;100863.33;1738858;81;27242;-55
2022/06/30 02:10:14;;;;;;;;;;;;;;;22.31;63.77;100861.86;1734256;80;27469;-55
2022/06/30 02:12:45;;;;;;;;;;;;;;;22.26;63.75;100867.14;1722922;81;25721;-55
2022/06/30 02:15:18;;;;;;;;;;;;;;;22.20;63.40;100866.92;1717171;81;25714;-56
2022/06/30 02:17:46;;;;;;;;;;;;;;;22.18;63.47;100866.31;1714655;82;25823;-55
2022/06/30 02:20:14;;;;;;;;;;;;;;;22.15;64.26;100869.97;1731032;81;25787;-56
2022/06/30 02:22:41;;;;;;;;;;;;;;;22.05;64.45;100871.77;1739718;81;27522;-55
2022/06/30 02:25:09;;;;;;;;;;;;;;;21.98;64.10;100870.39;1720120;81;25526;-55
2022/06/30 02:27:35;;;;;;;;;;;;;;;21.94;64.36;100862.80;1713951;82;25793;-55
2022/06/30 02:30:02;;;;;;;;;;;;;;;21.92;64.36;100873.15;1731142;81;25768;-55
2022/06/30 02:32:28;;;;;;;;;;;;;;;21.93;64.49;100872.06;1716246;81;25951;-54
2022/06/30 02:34:56;;;;;;;;;;;;;;;21.94;64.64;100871.02;1720144;81;29580;-55
2022/06/30 02:37:22;;;;;;;;;;;;;;;21.98;64.56;100876.41;1718992;82;25846;-55
2022/06/30 02:39:49;;;;;;;;;;;;;;;22.01;64.80;100878.71;1727570;81;25887;-55
2022/06/30 02:42:15;;;;;;;;;;;;;;;22.02;64.57;100877.66;1719601;81;25897;-55
2022/06/30 02:44:42;;;;;;;;;;;;;;;22.02;64.80;100874.92;1719455;81;25780;-55
2022/06/30 02:47:09;;;;;;;;;;;;;;;22.02;64.36;100870.30;1701472;81;28014;-55
2022/06/30 02:49:37;;;;;;;;;;;;;;;22.02;64.19;100875.78;1718648;81;26018;-54
2022/06/30 02:52:05;;;;;;;;;;;;;;;21.96;64.37;100870.30;1730577;81;25727;-55
2022/06/30 02:54:32;;;;;;;;;;;;;;;21.92;64.64;100866.30;1721019;82;25943;-55
2022/06/30 02:56:58;;;;;;;;;;;;;;;21.92;64.59;100870.41;1726058;81;25888;-55
2022/06/30 02:59:25;;;;;;;;;;;;;;;21.92;64.86;100865.77;1716947;81;27541;-54
2022/06/30 03:01:51;;;;;;;;;;;;;;;21.94;65.02;100872.39;1724984;82;25741;-53
2022/06/30 03:04:18;;;;;;;;;;;;;;;21.97;64.76;100874.18;1720829;82;25457;-53
2022/06/30 03:06:45;;;;;;;;;;;;;;;22.02;64.73;100875.78;1719410;80;25932;-55
2022/06/30 03:09:11;;;;;;;;;;;;;;;22.05;64.79;100880.81;1727496;80;25816;-55
2022/06/30 03:11:39;;;;;;;;;;;;;;;22.08;64.86;100882.32;1721738;82;28381;-55
2022/06/30 03:14:06;;;;;;;;;;;;;;;22.10;64.69;100887.58;1733225;80;25498;-54
2022/06/30 03:16:35;;;;;;;;;;;;;;;22.12;64.52;100886.84;1751831;80;25820;-54
2022/06/30 03:19:04;;;;;;;;;;;;;;;22.12;64.74;100880.00;1707936;81;25977;-55
2022/06/30 03:21:31;;;;;;;;;;;;;;;22.05;64.80;100882.19;1713698;83;25417;-54
2022/06/30 03:23:57;;;;;;;;;;;;;;;22.02;64.92;100879.03;1715809;81;26970;-54
2022/06/30 03:26:24;;;;;;;;;;;;;;;22.01;65.14;100882.81;1714070;81;25841;-55
2022/06/30 03:28:50;;;;;;;;;;;;;;;22.00;64.90;100883.90;1728832;82;25785;-55
2022/06/30 03:31:17;;;;;;;;;;;;;;;22.02;65.03;100881.77;1723283;81;25798;-54
2022/06/30 03:33:43;;;;;;;;;;;;;;;22.06;64.96;100885.79;1715387;81;25864;-56
2022/06/30 03:36:10;;;;;;;;;;;;;;;22.05;65.27;100882.73;1714038;81;28344;-56
2022/06/30 03:38:36;;;;;;;;;;;;;;;22.06;65.25;100881.68;1722546;81;25778;-54
2022/06/30 03:41:03;;;;;;;;;;;;;;;22.13;65.18;100883.89;1725713;81;25948;-55
2022/06/30 03:43:30;;;;;;;;;;;;;;;22.24;65.06;100889.25;1716984;82;25875;-55
2022/06/30 03:45:56;;;;;;;;;;;;;;;22.33;64.76;100877.03;1717559;81;25476;-54
2022/06/30 03:48:23;;;;;;;;;;;;;;;22.43;64.47;100883.50;1726631;81;29704;-55
2022/06/30 03:50:49;;;;;;;;;;;;;;;22.53;64.39;100883.05;1729911;81;25789;-55
2022/06/30 03:53:15;;;;;;;;;;;;;;;22.62;64.14;100886.43;1725348;81;25879;-56
2022/06/30 03:55:42;;;;;;;;;;;;;;;22.72;64.01;100886.84;1721480;81;25924;-55
2022/06/30 03:58:08;;;;;;;;;;;;;;;22.85;63.74;100880.98;1720592;81;26543;-56
2022/06/30 04:00:35;;;;;;;;;;;;;;;22.94;63.41;100877.81;1715821;81;28302;-56
2022/06/30 04:03:03;;;;;;;;;;;;;;;23.04;63.30;100884.74;1716653;80;26065;-56
2022/06/30 04:05:30;;;;;;;;;;;;;;;23.12;63.17;100881.75;1720442;81;25755;-54
2022/06/30 04:07:56;;;;;;;;;;;;;;;23.19;62.88;100887.22;1714014;82;25814;-56
2022/06/30 04:10:23;;;;;;;;;;;;;;;23.24;62.59;100882.77;1718184;82;25729;-56
2022/06/30 04:12:49;;;;;;;;;;;;;;;23.34;62.34;100893.81;1727956;81;27478;-55
2022/06/30 04:15:16;;;;;;;;;;;;;;;23.37;61.83;100896.13;1728758;81;25719;-55
2022/06/30 04:17:43;;;;;;;;;;;;;;;23.42;61.73;100885.33;1718786;82;25820;-55
2022/06/30 04:20:17;;;;;;;;;;;;;;;23.50;61.38;100888.36;1713108;82;25876;-55
2022/06/30 04:22:45;;;;;;;;;;;;;;;23.55;61.08;100888.53;1713674;82;25699;-55
2022/06/30 04:25:13;;;;;;;;;;;;;;;23.59;60.72;100887.87;1687767;83;27584;-54
2022/06/30 04:27:46;;;;;;;;;;;;;;;23.66;60.43;100887.84;1718165;82;25864;-54
2022/06/30 04:30:14;;;;;;;;;;;;;;;23.69;60.11;100892.90;1733004;81;25814;-55
2022/06/30 04:32:41;;;;;;;;;;;;;;;23.72;59.66;100894.36;1717287;82;26568;-56
2022/06/30 04:35:11;;;;;;;;;;;;;;;23.73;59.50;100900.16;1713938;82;25492;-56
2022/06/30 04:37:38;;;;;;;;;;;;;;;23.76;59.40;100895.58;1712640;82;27544;-55
2022/06/30 04:42:52;;;;;;;;;;;;;;;23.81;59.07;100892.17;1713807;81;25936;-55
2022/06/30 04:45:18;;;;;;;;;;;;;;;23.84;58.85;100890.36;1717227;81;25806;-55
2022/06/30 04:47:46;;;;;;;;;;;;;;;23.89;59.05;100889.19;1717751;81;25741;-55
2022/06/30 04:50:13;;;;;;;;;;;;;;;23.94;58.97;100888.52;1727283;82;27621;-56
2022/06/30 04:52:39;;;;;;;;;;;;;;;23.98;58.83;100888.40;1713835;82;25984;-55
2022/06/30 04:55:07;;;;;;;;;;;;;;;24.03;58.86;100894.05;1726484;81;25769;-54
2022/06/30 04:57:34;;;;;;;;;;;;;;;24.07;58.75;100900.80;1715459;82;25961;-55
2022/06/30 05:00:01;;;;;;;;;;;;;;;24.10;58.65;100892.13;1695537;83;25809;-55
2022/06/30 05:02:27;;;;;;;;;;;;;;;24.15;58.67;100900.52;1724694;81;27556;-56
2022/06/30 05:04:53;;;;;;;;;;;;;;;24.20;58.38;100902.60;1728304;80;25801;-55
2022/06/30 05:07:21;;;;;;;;;;;;;;;24.23;58.26;100902.16;1727945;81;25901;-55
2022/06/30 05:09:48;;;;;;;;;;;;;;;24.27;58.15;100901.18;1723667;81;25864;-55
2022/06/30 05:12:15;;;;;;;;;;;;;;;24.29;57.91;100906.75;1723265;81;26763;-54
2022/06/30 05:14:41;;;;;;;;;;;;;;;24.34;57.83;100904.70;1730301;81;28377;-55
2022/06/30 05:17:08;;;;;;;;;;;;;;;24.38;57.79;100904.03;1722626;81;25822;-55
2022/06/30 05:19:34;;;;;;;;;;;;;;;24.42;57.78;100908.55;1692925;83;25932;-55
2022/06/30 05:22:02;;;;;;;;;;;;;;;24.46;57.73;100905.67;1684529;83;25829;-54
2022/06/30 05:27:14;;;;;;;;;;;;;;;24.56;57.22;100899.64;1702609;82;28530;-54
2022/06/30 05:29:41;;;;;;;;;;;;;;;24.63;56.86;100901.78;1725438;81;25897;-55
2022/06/30 05:32:08;;;;;;;;;;;;;;;24.71;56.54;100901.21;1722708;81;25737;-56
2022/06/30 05:34:35;;;;;;;;;;;;;;;24.78;56.41;100903.38;1718403;81;25867;-55
2022/06/30 05:37:03;;;;;;;;;;;;;;;24.85;55.76;100907.72;1726936;80;26157;-56
2022/06/30 05:39:31;;;;;;;;;;;;;;;24.92;55.31;100904.91;1718816;81;27486;-56
2022/06/30 05:41:58;;;;;;;;;;;;;;;25.00;54.71;100907.35;1725527;81;25731;-56
2022/06/30 05:44:24;;;;;;;;;;;;;;;25.06;53.61;100909.72;1736946;80;25759;-55
2022/06/30 05:46:51;;;;;;;;;;;;;;;25.12;53.55;100902.47;1738937;80;26509;-57
2022/06/30 05:49:18;;;;;;;;;;;;;;;25.20;53.15;100896.64;1751860;80;25789;-52
2022/06/30 05:51:44;;;;;;;;;;;;;;;25.32;52.39;100895.33;1749766;81;27462;-55
2022/06/30 05:54:15;;;;;;;;;;;;;;;25.40;52.52;100895.03;1758585;81;25941;-56
2022/06/30 05:56:43;;;;;;;;;;;;;;;25.50;52.79;100896.39;1753954;80;25780;-56
2022/06/30 05:59:10;;;;;;;;;;;;;;;25.55;52.83;100891.88;1747150;81;26050;-56
2022/06/30 06:01:36;;;;;;;;;;;;;;;25.62;52.39;100894.54;1743879;81;25771;-56
2022/06/30 06:04:05;;;;;;;;;;;;;;;25.70;51.82;100894.73;1742771;80;27486;-55
2022/06/30 06:06:31;;;;;;;;;;;;;;;25.77;52.09;100889.98;1744592;81;26181;-57
2022/06/30 06:08:58;;;;;;;;;;;;;;;25.85;51.62;100890.16;1756035;80;25858;-57
2022/06/30 06:11:25;;;;;;;;;;;;;;;25.92;51.55;100890.90;1758990;80;26167;-55
2022/06/30 06:13:52;;;;;;;;;;;;;;;26.03;51.72;100887.89;1735833;80;25820;-56
2022/06/30 06:16:20;;;;;;;;;;;;;;;26.12;50.79;100892.01;1721052;81;29698;-56
2022/06/30 06:18:46;;;;;;;;;;;;;;;26.21;50.84;100893.34;1731452;80;25713;-54
2022/06/30 06:21:13;;;;;;;;;;;;;;;26.29;50.96;100897.64;1719108;81;25859;-54
2022/06/30 06:23:40;;;;;;;;;;;;;;;26.39;50.63;100891.56;1732179;81;25985;-55
2022/06/30 06:26:06;;;;;;;;;;;;;;;26.46;50.66;100885.38;1721152;80;25803;-55
2022/06/30 06:31:18;;;;;;;;;;;;;;;26.63;50.28;100884.65;1726706;81;27279;-55
2022/06/30 06:33:46;;;;;;;;;;;;;;;26.69;50.16;100887.29;1717823;81;25864;-56
2022/06/30 06:36:13;;;;;;;;;;;;;;;26.76;50.26;100887.14;1736603;81;25816;-56
2022/06/30 06:38:39;;;;;;;;;;;;;;;26.83;50.21;100892.56;1727273;81;25474;-56
2022/06/30 06:41:08;;;;;;;;;;;;;;;26.87;49.76;100888.26;1724766;81;28383;-56
2022/06/30 06:43:35;;;;;;;;;;;;;;;26.95;49.84;100889.78;1730719;80;25709;-55
2022/06/30 06:46:02;;;;;;;;;;;;;;;27.02;49.61;100890.52;1729919;80;25727;-57
2022/06/30 06:48:29;;;;;;;;;;;;;;;27.10;49.41;100891.51;1743141;80;25767;-56
2022/06/30 06:50:56;;;;;;;;;;;;;;;27.22;49.53;100886.47;1741421;80;26110;-56
2022/06/30 06:53:22;;;;;;;;;;;;;;;27.33;48.88;100892.51;1706354;82;27644;-56
2022/06/30 06:55:49;;;;;;;;;;;;;;;27.42;47.48;100893.80;1704219;82;25725;-56
2022/06/30 06:58:16;;;;;;;;;;;;;;;27.52;46.24;100893.20;1692306;82;26471;-56
2022/06/30 07:00:43;;;;;;;;;;;;;;;27.62;46.58;100890.61;1709664;82;25810;-56
2022/06/30 07:03:10;;;;;;;;;;;;;;;27.73;46.85;100890.28;1695669;82;25717;-55
2022/06/30 07:05:36;;;;;;;;;;;;;;;27.84;46.31;100894.06;1684313;83;27489;-56
2022/06/30 07:08:04;;;;;;;;;;;;;;;27.92;46.83;100890.06;1696510;83;26542;-57
2022/06/30 07:10:30;;;;;;;;;;;;;;;28.00;46.96;100886.02;1689677;84;25789;-56
2022/06/30 07:12:57;;;;;;;;;;;;;;;28.06;46.74;100880.34;1703861;82;27847;-56
2022/06/30 07:15:24;;;;;;;;;;;;;;;28.12;46.46;100881.30;1730314;81;25722;-57
2022/06/30 07:17:50;;;;;;;;;;;;;;;28.20;46.29;100884.16;1716395;81;27475;-55
2022/06/30 07:20:17;;;;;;;;;;;;;;;28.30;45.71;100885.72;1709530;80;25956;-56
2022/06/30 07:22:44;;;;;;;;;;;;;;;28.38;46.14;100886.67;1715258;80;25710;-55
2022/06/30 07:25:11;;;;;;;;;;;;;;;28.48;46.49;100887.92;1714601;81;25820;-55
2022/06/30 07:27:38;;;;;;;;;;;;;;;28.57;46.54;100895.55;1706284;83;25784;-56
2022/06/30 07:30:06;;;;;;;;;;;;;;;28.68;46.48;100887.41;1706899;83;27374;-56
2022/06/30 07:32:32;;;;;;;;;;;;;;;28.76;46.51;100884.23;1723036;81;25886;-56
2022/06/30 07:34:59;;;;;;;;;;;;;;;28.89;45.35;100885.22;1722004;81;25844;-56
2022/06/30 07:37:25;;;;;;;;;;;;;;;29.00;45.82;100891.72;1718496;80;25778;-57
2022/06/30 07:39:52;;;;;;;;;;;;;;;29.09;45.65;100892.69;1718967;80;26085;-57
2022/06/30 07:42:18;;;;;;;;;;;;;;;29.20;44.18;100890.31;1718100;80;27520;-57
2022/06/30 07:44:45;;;;;;;;;;;;;;;29.27;44.48;100892.33;1720661;81;25796;-57
2022/06/30 07:47:11;;;;;;;;;;;;;;;29.32;43.37;100889.66;1716001;80;25755;-56
2022/06/30 07:49:40;;;;;;;;;;;;;;;29.38;42.94;100891.09;1736554;80;25853;-57
2022/06/30 07:52:07;;;;;;;;;;;;;;;29.49;43.31;100883.19;1721441;82;25478;-57
2022/06/30 07:54:33;;;;;;;;;;;;;;;29.54;41.96;100894.32;1735032;80;27478;-56
2022/06/30 07:57:00;;;;;;;;;;;;;;;29.60;42.06;100888.28;1720796;82;25758;-56
2022/06/30 07:59:26;;;;;;;;;;;;;;;29.68;41.98;100890.58;1731556;81;25666;-57
2022/06/30 08:01:53;;;;;;;;;;;;;;;29.73;40.45;100889.80;1733443;81;26694;-56
2022/06/30 08:04:19;;;;;;;;;;;;;;;29.81;40.52;100885.16;1716842;81;25941;-56
2022/06/30 08:06:46;;;;;;;;;;;;;;;29.92;40.98;100882.80;1720904;81;27407;-56
2022/06/30 08:09:12;;;;;;;;;;;;;;;29.98;40.98;100884.55;1732626;81;25853;-55
2022/06/30 08:11:39;;;;;;;;;;;;;;;30.02;41.23;100882.61;1716757;81;25807;-56
2022/06/30 08:14:05;;;;;;;;;;;;;;;30.08;41.54;100882.39;1725645;81;26599;-54
2022/06/30 08:16:33;;;;;;;;;;;;;;;30.15;40.77;100873.86;1725216;81;25469;-56
2022/06/30 08:19:00;;;;;;;;;;;;;;;30.25;40.10;100878.10;1726728;81;27546;-56
2022/06/30 08:21:26;;;;;;;;;;;;;;;30.42;40.54;100871.55;1728440;80;26104;-56
2022/06/30 08:23:53;;;;;;;;;;;;;;;30.55;40.65;100868.88;1726901;81;25736;-56
2022/06/30 08:26:20;;;;;;;;;;;;;;;30.71;40.69;100876.73;1732769;81;26618;-57
2022/06/30 08:28:47;;;;;;;;;;;;;;;30.87;39.68;100877.65;1719460;81;25916;-56
2022/06/30 08:31:15;;;;;;;;;;;;;;;31.02;39.52;100874.94;1725506;82;27534;-56
2022/06/30 08:33:42;;;;;;;;;;;;;;;31.17;39.95;100874.19;1740103;81;25502;-56
2022/06/30 08:36:08;;;;;;;;;;;;;;;31.33;40.03;100873.70;1740132;81;25760;-56
2022/06/30 08:38:35;;;;;;;;;;;;;;;31.48;38.90;100879.85;1721603;82;25809;-55
2022/06/30 08:43:46;;;;;;;;;;;;;;;31.76;38.66;100876.86;1721588;80;27564;-56
2022/06/30 08:46:15;;;;;;;;;;;;;;;31.96;37.40;100884.40;1741563;80;25767;-55
2022/06/30 08:48:42;;;;;;;;;;;;;;;32.12;37.03;100875.47;1746990;80;25788;-55
2022/06/30 08:51:09;;;;;;;;;;;;;;;32.21;37.06;100877.15;1737568;81;25831;-55
2022/06/30 08:53:41;;;;;;;;;;;;;;;32.32;36.58;100874.64;1731802;81;25709;-55
2022/06/30 08:56:08;;;;;;;;;;;;;;;32.49;35.23;100876.30;1720301;80;27490;-55
2022/06/30 08:58:36;;;;;;;;;;;;;;;32.69;34.65;100870.66;1732333;81;25492;-56
2022/06/30 09:01:03;;;;;;;;;;;;;;;32.87;34.65;100868.41;1721744;81;25462;-56
2022/06/30 09:03:30;;;;;;;;;;;;;;;33.03;33.46;100870.58;1728650;81;25855;-56
2022/06/30 09:05:57;;;;;;;;;;;;;;;33.16;34.18;100874.15;1733483;81;25818;-55
2022/06/30 09:08:25;;;;;;;;;;;;;;;33.29;33.86;100869.90;1735752;81;27483;-54
2022/06/30 09:10:54;;;;;;;;;;;;;;;33.45;34.06;100865.65;1727431;81;25899;-56
2022/06/30 09:13:23;;;;;;;;;;;;;;;33.64;33.96;100865.78;1721904;81;25366;-56
2022/06/30 09:15:51;;;;;;;;;;;;;;;33.91;33.89;100866.73;1735151;81;26509;-55
2022/06/30 09:18:26;;;;;;;;;;;;;;;34.23;32.14;100870.91;1719075;80;26444;-55
2022/06/30 09:20:53;;;;;;;;;;;;;;;34.46;31.94;100862.33;1724138;81;27481;-55
2022/06/30 09:23:23;;;;;;;;;;;;;;;34.74;31.35;100859.78;1730960;80;25709;-55
2022/06/30 09:25:52;;;;;;;;;;;;;;;34.91;30.73;100859.33;1728789;81;25749;-55
2022/06/30 09:28:39;;;;;;;;;;;;;;;35.02;30.91;100858.62;1724621;82;26718;-56
2022/06/30 09:31:05;;;;;;;;;;;;;;;35.15;31.16;100855.66;1735183;80;25872;-55
2022/06/30 09:33:38;;;;;;;;;;;;;;;35.29;31.63;100848.75;1732044;80;27395;-55
2022/06/30 09:36:23;;;;;;;;;;;;;;;35.53;31.11;100842.27;1725706;81;26090;-56
2022/06/30 09:39:08;;;;;;;;;;;;;;;35.78;30.34;100844.38;1724174;80;25866;-55
2022/06/30 09:41:38;;;;;;;;;;;;;;;35.96;30.01;100839.92;1720904;81;25983;-55
2022/06/30 09:44:07;;;;;;;;;;;;;;;36.09;29.99;100839.69;1729968;82;25534;-57
2022/06/30 09:46:36;;;;;;;;;;;;;;;36.32;29.16;100830.27;1703450;82;27435;-56
2022/06/30 09:49:04;;;;;;;;;;;;;;;36.50;29.05;100821.56;1708298;81;25824;-56
2022/06/30 09:51:36;;;;;;;;;;;;;;;36.75;29.66;100821.35;1707091;81;26221;-55
2022/06/30 09:54:10;;;;;;;;;;;;;;;37.04;27.17;100815.41;1724342;81;25956;-56
2022/06/30 09:56:38;;;;;;;;;;;;;;;37.21;28.04;100811.11;1706412;82;25787;-56
2022/06/30 09:59:07;;;;;;;;;;;;;;;37.55;28.39;100799.37;1691596;83;27499;-56
2022/06/30 10:01:53;;;;;;;;;;;;;;;37.86;26.56;100796.37;1737275;81;25519;-56
2022/06/30 10:04:19;;;;;;;;;;;;;;;38.00;26.07;100792.89;1728134;81;25714;-55
2022/06/30 10:06:46;;;;;;;;;;;;;;;38.19;25.96;100796.04;1719615;81;25817;-55
2022/06/30 10:09:17;;;;;;;;;;;;;;;38.46;25.77;100791.38;1721925;81;25686;-57
2022/06/30 10:11:45;;;;;;;;;;;;;;;38.84;24.33;100795.06;1718849;82;27455;-56
2022/06/30 10:14:13;;;;;;;;;;;;;;;39.06;24.73;100783.41;1730223;81;26339;-56
2022/06/30 10:16:41;;;;;;;;;;;;;;;39.32;24.16;100776.97;1729269;81;25503;-55
2022/06/30 10:19:09;;;;;;;;;;;;;;;39.74;22.39;100775.88;1734172;80;26476;-55
2022/06/30 10:21:38;;;;;;;;;;;;;;;39.96;23.59;100773.41;1733320;81;26182;-55
2022/06/30 10:24:06;;;;;;;;;;;;;;;40.36;23.14;100766.63;1719227;81;28503;-55
2022/06/30 10:29:19;;;;;;;;;;;;;;;40.97;22.41;100765.42;1733574;80;25745;-55
2022/06/30 10:31:55;;;;;;;;;;;;;;;41.44;22.36;100762.95;1722008;82;26027;-55
2022/06/30 10:34:28;;;;;;;;;;;;;;;41.99;21.27;100755.84;1731856;81;25624;-55
2022/06/30 10:37:16;;;;;;;;;;;;;;;42.55;21.68;100753.84;1710497;82;27549;-56
2022/06/30 10:39:58;;;;;;;;;;;;;;;42.98;20.58;100749.55;1733947;80;25919;-56
2022/06/30 10:42:48;;;;;;;;;;;;;;;43.29;19.21;100740.12;1723393;81;25855;-55
2022/06/30 10:45:33;;;;;;;;;;;;;;;43.63;19.89;100732.98;1733692;80;25973;-55
2022/06/30 10:48:03;;;;;;;;;;;;;;;44.00;20.12;100726.27;1722925;80;25856;-56
2022/06/30 10:50:35;;;;;;;;;;;;;;;44.21;18.77;100725.13;1716447;81;28380;-55
2022/06/30 10:53:09;;;;;;;;;;;;;;;44.09;19.38;100716.98;1700029;82;25794;-56
2022/06/30 10:55:45;;;;;;;;;;;;;;;44.43;19.81;100725.67;1708733;82;25507;-56
2022/06/30 10:58:12;;;;;;;;;;;;;;;44.78;18.20;100729.07;1701303;83;26588;-56
2022/06/30 11:00:48;;;;;;;;;;;;;;;44.34;18.41;100729.50;1703280;82;25727;-55
2022/06/30 11:03:37;;;;;;;;;;;;;;;43.51;19.11;100731.63;1700486;82;28963;-56
2022/06/30 11:06:10;;;;;;;;;;;;;;;43.64;18.98;100722.49;1743178;79;25719;-56
2022/06/30 11:08:46;;;;;;;;;;;;;;;44.29;19.18;100715.59;1748304;80;25527;-56
2022/06/30 11:11:24;;;;;;;;;;;;;;;44.97;18.37;100716.92;1741238;81;26796;-55
2022/06/30 11:14:07;;;;;;;;;;;;;;;44.98;17.34;100719.98;1750212;80;25864;-56
2022/06/30 11:16:36;;;;;;;;;;;;;;;44.76;17.96;100713.85;1742734;80;27519;-56
2022/06/30 11:19:05;;;;;;;;;;;;;;;44.84;17.55;100712.00;1751476;80;25992;-57
2022/06/30 11:21:33;;;;;;;;;;;;;;;44.83;18.07;100715.45;1719822;82;36968;-56
2022/06/30 11:24:01;;;;;;;;;;;;;;;45.32;17.71;100706.91;1749437;80;25871;-56
2022/06/30 11:29:16;;;;;;;;;;;;;;;46.09;16.39;100713.33;1749700;80;27592;-56
2022/06/30 11:31:43;;;;;;;;;;;;;;;46.19;16.57;100709.83;1732197;81;27364;-56
2022/06/30 11:34:15;;;;;;;;;;;;;;;46.45;15.90;100703.93;1713344;81;25816;-57
2022/06/30 11:36:43;;;;;;;;;;;;;;;46.40;15.56;100705.70;1716881;82;25872;-56
2022/06/30 11:39:15;;;;;;;;;;;;;;;45.47;16.83;100705.16;1727118;82;25732;-56
2022/06/30 11:41:55;;;;;;;;;;;;;;;45.99;16.36;100701.22;1734167;80;27718;-56
2022/06/30 11:44:24;;;;;;;;;;;;;;;46.01;16.27;100703.05;1733177;81;25900;-56
2022/06/30 11:47:00;;;;;;;;;;;;;;;45.91;15.44;100694.55;1698819;81;25846;-56
2022/06/30 11:49:50;;;;;;;;;;;;;;;45.64;15.99;100695.33;1699115;80;25910;-56
2022/06/30 11:52:20;;;;;;;;;;;;;;;45.85;16.14;100707.45;1719473;81;25500;-56
2022/06/30 11:54:59;;;;;;;;;;;;;;;46.12;15.92;100701.81;1724625;81;27549;-56
2022/06/30 11:57:29;;;;;;;;;;;;;;;46.34;14.84;100695.23;1719039;82;25892;-56
2022/06/30 12:00:02;;;;;;;;;;;;;;;46.32;15.01;100697.63;1712021;81;25805;-56
2022/06/30 12:02:30;;;;;;;;;;;;;;;46.60;15.00;100693.57;1709309;83;26587;-56
2022/06/30 12:04:58;;;;;;;;;;;;;;;47.16;14.64;100696.73;1704185;83;25454;-56
2022/06/30 12:07:25;;;;;;;;;;;;;;;47.58;14.98;100691.25;1699792;83;28275;-56
2022/06/30 12:09:52;;;;;;;;;;;;;;;48.26;14.43;100687.32;1684094;83;25869;-56
2022/06/30 12:12:28;;;;;;;;;;;;;;;48.81;13.71;100677.84;1702644;82;25813;-57
2022/06/30 12:15:00;;;;;;;;;;;;;;;49.13;13.22;100672.02;1693085;83;25915;-56
2022/06/30 12:17:35;;;;;;;;;;;;;;;49.49;13.35;100679.23;1710393;81;25788;-56
2022/06/30 12:20:03;;;;;;;;;;;;;;;49.58;12.42;100680.23;1742091;81;27715;-57
2022/06/30 12:22:31;;;;;;;;;;;;;;;48.69;13.81;100680.42;1724459;80;25488;-56
2022/06/30 12:24:58;;;;;;;;;;;;;;;48.51;12.75;100678.91;1730201;81;25433;-56
2022/06/30 12:27:32;;;;;;;;;;;;;;;46.98;13.88;100681.66;1724665;80;25832;-56
2022/06/30 12:30:07;;;;;;;;;;;;;;;45.86;14.54;100684.94;1729477;81;25773;-56
2022/06/30 12:32:34;;;;;;;;;;;;;;;44.90;14.13;100687.83;1725314;80;27660;-56
2022/06/30 12:35:03;;;;;;;;;;;;;;;44.08;15.71;100679.06;1725338;81;25721;-56
2022/06/30 12:37:38;;;;;;;;;;;;;;;43.63;15.66;100681.20;1736009;80;26317;-56
2022/06/30 12:40:09;;;;;;;;;;;;;;;44.09;16.19;100668.80;1735005;81;25916;-56
2022/06/30 12:42:47;;;;;;;;;;;;;;;45.08;16.60;100673.97;1727329;80;25697;-56
2022/06/30 12:45:44;;;;;;;;;;;;;;;45.73;16.54;100672.94;1729452;80;28292;-56
2022/06/30 12:48:12;;;;;;;;;;;;;;;45.97;16.07;100681.67;1736342;81;25860;-56
2022/06/30 12:50:41;;;;;;;;;;;;;;;44.94;16.53;100681.61;1725486;82;25731;-57
2022/06/30 12:53:23;;;;;;;;;;;;;;;43.88;17.37;100694.58;1710111;81;25789;-56
2022/06/30 12:56:04;;;;;;;;;;;;;;;42.96;18.12;100702.39;1736315;82;25526;-57
2022/06/30 12:58:49;;;;;;;;;;;;;;;42.09;19.11;100711.58;1726394;80;27568;-57
2022/06/30 13:01:28;;;;;;;;;;;;;;;41.52;19.66;100717.49;1707373;82;25763;-57
2022/06/30 13:04:10;;;;;;;;;;;;;;;41.06;20.11;100713.20;1720762;80;25709;-56